sensor_id;sensor_type;location;lat;lon;timestamp;P1;durP1;ratioP1;P2;durP2;ratioP2
4202;SDS011;2115;51.038;7.006;2023-09-19T08:40:37;789.57;;;528.13;;
4202;SDS011;2115;51.038;7.006;2023-09-19T08:43:04;864.25;;;727.85;;
4202;SDS011;2115;51.038;7.006;2023-09-19T08:45:32;852.73;;;708.87;;
4202;SDS011;2115;51.038;7.006;2023-09-19T08:53:58;890.10;;;789.95;;
4202;SDS011;2115;51.038;7.006;2023-09-19T08:56:18;900.60;;;802.20;;
4202;SDS011;2115;51.038;7.006;2023-09-19T09:03:49;907.05;;;807.20;;
4202;SDS011;2115;51.038;7.006;2023-09-19T09:06:17;707.70;;;403.53;;
4202;SDS011;2115;51.038;7.006;2023-09-19T09:11:08;747.10;;;417.70;;
4202;SDS011;2115;51.038;7.006;2023-09-19T09:38:21;736.60;;;480.00;;
4202;SDS011;2115;51.038;7.006;2023-09-19T09:40:52;716.00;;;440.40;;
4202;SDS011;2115;51.038;7.006;2023-09-19T09:43:25;717.00;;;464.13;;
4202;SDS011;2115;51.038;7.006;2023-09-19T09:46:14;714.93;;;458.30;;
4202;SDS011;2115;51.038;7.006;2023-09-19T09:51:44;706.10;;;461.00;;
4202;SDS011;2115;51.038;7.006;2023-09-19T09:54:30;724.90;;;490.40;;
4202;SDS011;2115;51.038;7.006;2023-09-19T09:57:02;727.63;;;487.83;;
4202;SDS011;2115;51.038;7.006;2023-09-19T09:59:55;714.77;;;478.33;;
4202;SDS011;2115;51.038;7.006;2023-09-19T10:02:37;731.07;;;490.13;;
4202;SDS011;2115;51.038;7.006;2023-09-19T10:07:52;722.00;;;486.50;;
4202;SDS011;2115;51.038;7.006;2023-09-19T10:13:18;735.40;;;503.73;;
4202;SDS011;2115;51.038;7.006;2023-09-19T10:15:48;719.43;;;504.43;;
4202;SDS011;2115;51.038;7.006;2023-09-19T10:18:20;759.33;;;589.27;;
4202;SDS011;2115;51.038;7.006;2023-09-19T10:20:47;750.25;;;562.45;;
4202;SDS011;2115;51.038;7.006;2023-09-19T10:23:16;772.63;;;634.33;;
4202;SDS011;2115;51.038;7.006;2023-09-19T10:25:47;803.53;;;662.07;;
4202;SDS011;2115;51.038;7.006;2023-09-19T10:28:13;766.17;;;643.23;;
4202;SDS011;2115;51.038;7.006;2023-09-19T10:30:41;768.93;;;654.40;;
4202;SDS011;2115;51.038;7.006;2023-09-19T10:33:12;766.57;;;639.77;;
4202;SDS011;2115;51.038;7.006;2023-09-19T10:35:42;754.60;;;592.30;;
4202;SDS011;2115;51.038;7.006;2023-09-19T10:38:09;757.23;;;618.70;;
4202;SDS011;2115;51.038;7.006;2023-09-19T10:40:36;762.17;;;595.03;;
4202;SDS011;2115;51.038;7.006;2023-09-19T10:43:06;787.40;;;656.53;;
4202;SDS011;2115;51.038;7.006;2023-09-19T10:45:32;776.90;;;677.70;;
4202;SDS011;2115;51.038;7.006;2023-09-19T10:48:00;841.30;;;751.83;;
4202;SDS011;2115;51.038;7.006;2023-09-19T10:50:30;844.00;;;753.60;;
4202;SDS011;2115;51.038;7.006;2023-09-19T10:52:59;789.13;;;700.47;;
4202;SDS011;2115;51.038;7.006;2023-09-19T10:55:29;858.30;;;767.80;;
4202;SDS011;2115;51.038;7.006;2023-09-19T10:57:56;849.93;;;759.57;;
4202;SDS011;2115;51.038;7.006;2023-09-19T11:00:22;859.65;;;769.40;;
4202;SDS011;2115;51.038;7.006;2023-09-19T11:05:37;929.10;;;831.33;;
4202;SDS011;2115;51.038;7.006;2023-09-19T11:08:06;910.67;;;815.77;;
4202;SDS011;2115;51.038;7.006;2023-09-19T11:11:06;940.37;;;843.17;;
4202;SDS011;2115;51.038;7.006;2023-09-19T11:13:28;835.30;;;746.70;;
4202;SDS011;2115;51.038;7.006;2023-09-19T11:24:27;1008.03;;;905.57;;
4202;SDS011;2115;51.038;7.006;2023-09-19T11:26:57;960.83;;;864.27;;
4202;SDS011;2115;51.038;7.006;2023-09-19T11:29:35;949.07;;;852.77;;
4202;SDS011;2115;51.038;7.006;2023-09-19T11:32:05;947.33;;;852.53;;
4202;SDS011;2115;51.038;7.006;2023-09-19T11:34:42;954.97;;;856.33;;
4202;SDS011;2115;51.038;7.006;2023-09-19T11:40:25;924.60;;;831.80;;
4202;SDS011;2115;51.038;7.006;2023-09-19T11:42:44;891.00;;;799.50;;
4202;SDS011;2115;51.038;7.006;2023-09-19T11:48:14;1064.60;;;956.47;;
4202;SDS011;2115;51.038;7.006;2023-09-19T11:50:44;1025.43;;;916.97;;
4202;SDS011;2115;51.038;7.006;2023-09-19T11:53:13;1047.47;;;938.80;;
4202;SDS011;2115;51.038;7.006;2023-09-19T11:55:42;996.73;;;894.33;;
4202;SDS011;2115;51.038;7.006;2023-09-19T11:58:11;1019.67;;;917.57;;
4202;SDS011;2115;51.038;7.006;2023-09-19T12:00:39;1058.93;;;948.27;;
4202;SDS011;2115;51.038;7.006;2023-09-19T12:03:09;1063.30;;;952.47;;
4202;SDS011;2115;51.038;7.006;2023-09-19T12:05:36;1000.97;;;895.27;;
4202;SDS011;2115;51.038;7.006;2023-09-19T12:08:02;985.87;;;879.30;;
4202;SDS011;2115;51.038;7.006;2023-09-19T12:10:34;1066.33;;;952.77;;
4202;SDS011;2115;51.038;7.006;2023-09-19T12:13:10;1091.57;;;978.37;;
4202;SDS011;2115;51.038;7.006;2023-09-19T12:15:39;1005.33;;;900.63;;
4202;SDS011;2115;51.038;7.006;2023-09-19T12:18:05;1035.77;;;925.83;;
4202;SDS011;2115;51.038;7.006;2023-09-19T12:20:43;1092.53;;;977.60;;
4202;SDS011;2115;51.038;7.006;2023-09-19T12:23:15;1061.90;;;952.00;;
4202;SDS011;2115;51.038;7.006;2023-09-19T12:25:43;1057.60;;;947.80;;
4202;SDS011;2115;51.038;7.006;2023-09-19T12:28:13;1056.33;;;949.17;;
4202;SDS011;2115;51.038;7.006;2023-09-19T12:30:40;1048.73;;;944.73;;
4202;SDS011;2115;51.038;7.006;2023-09-19T12:33:18;1068.47;;;959.20;;
4202;SDS011;2115;51.038;7.006;2023-09-19T12:35:50;1107.03;;;992.37;;
4202;SDS011;2115;51.038;7.006;2023-09-19T12:38:24;1104.20;;;989.40;;
4202;SDS011;2115;51.038;7.006;2023-09-19T12:41:01;1089.27;;;979.17;;
4202;SDS011;2115;51.038;7.006;2023-09-19T12:43:30;1083.37;;;974.70;;
4202;SDS011;2115;51.038;7.006;2023-09-19T12:45:58;1056.00;;;946.60;;
4202;SDS011;2115;51.038;7.006;2023-09-19T12:48:25;1117.47;;;999.47;;
4202;SDS011;2115;51.038;7.006;2023-09-19T12:53:30;1075.50;;;968.43;;
4202;SDS011;2115;51.038;7.006;2023-09-19T12:55:58;1099.97;;;989.17;;
4202;SDS011;2115;51.038;7.006;2023-09-19T12:58:24;1088.67;;;979.67;;
4202;SDS011;2115;51.038;7.006;2023-09-19T13:00:50;1129.10;;;999.90;;
4202;SDS011;2115;51.038;7.006;2023-09-19T13:05:57;1025.10;;;916.57;;
4202;SDS011;2115;51.038;7.006;2023-09-19T13:08:32;1088.90;;;978.70;;
4202;SDS011;2115;51.038;7.006;2023-09-19T13:11:03;1119.27;;;998.20;;
4202;SDS011;2115;51.038;7.006;2023-09-19T13:13:45;1031.87;;;926.70;;
4202;SDS011;2115;51.038;7.006;2023-09-19T13:16:14;1044.37;;;939.13;;
4202;SDS011;2115;51.038;7.006;2023-09-19T13:18:44;1056.97;;;958.00;;
4202;SDS011;2115;51.038;7.006;2023-09-19T13:21:14;662.67;;;438.63;;
4202;SDS011;2115;51.038;7.006;2023-09-19T13:23:49;1028.57;;;934.50;;
4202;SDS011;2115;51.038;7.006;2023-09-19T13:26:15;1069.07;;;971.00;;
4202;SDS011;2115;51.038;7.006;2023-09-19T13:28:41;1119.70;;;999.90;;
4202;SDS011;2115;51.038;7.006;2023-09-19T13:31:06;1138.53;;;999.90;;
4202;SDS011;2115;51.038;7.006;2023-09-19T13:33:33;1123.10;;;999.90;;
4202;SDS011;2115;51.038;7.006;2023-09-19T13:35:59;971.87;;;872.33;;
4202;SDS011;2115;51.038;7.006;2023-09-19T13:38:24;1096.13;;;985.13;;
4202;SDS011;2115;51.038;7.006;2023-09-19T13:40:49;942.97;;;842.60;;
4202;SDS011;2115;51.038;7.006;2023-09-19T13:43:17;877.80;;;779.63;;
4202;SDS011;2115;51.038;7.006;2023-09-19T13:45:43;735.60;;;567.13;;
4202;SDS011;2115;51.038;7.006;2023-09-19T13:48:08;623.20;;;315.10;;
4202;SDS011;2115;51.038;7.006;2023-09-19T13:50:40;905.87;;;807.80;;
4202;SDS011;2115;51.038;7.006;2023-09-19T13:53:09;844.90;;;709.13;;
4202;SDS011;2115;51.038;7.006;2023-09-19T13:55:34;775.50;;;547.80;;
4202;SDS011;2115;51.038;7.006;2023-09-19T13:58:00;610.40;;;313.70;;
4202;SDS011;2115;51.038;7.006;2023-09-19T14:00:25;642.23;;;372.67;;
4202;SDS011;2115;51.038;7.006;2023-09-19T14:02:50;647.67;;;395.30;;
4202;SDS011;2115;51.038;7.006;2023-09-19T14:05:17;616.83;;;320.13;;
4202;SDS011;2115;51.038;7.006;2023-09-19T14:07:42;626.77;;;310.37;;
4202;SDS011;2115;51.038;7.006;2023-09-19T14:10:08;639.37;;;344.97;;
4202;SDS011;2115;51.038;7.006;2023-09-19T14:12:35;692.20;;;395.83;;
4202;SDS011;2115;51.038;7.006;2023-09-19T14:15:02;644.50;;;345.10;;
4202;SDS011;2115;51.038;7.006;2023-09-19T14:17:28;633.87;;;309.27;;
4202;SDS011;2115;51.038;7.006;2023-09-19T14:19:53;703.20;;;463.37;;
4202;SDS011;2115;51.038;7.006;2023-09-19T14:22:18;870.83;;;733.67;;
4202;SDS011;2115;51.038;7.006;2023-09-19T14:24:44;625.87;;;301.10;;
4202;SDS011;2115;51.038;7.006;2023-09-19T14:27:10;657.47;;;362.30;;
4202;SDS011;2115;51.038;7.006;2023-09-19T14:29:36;628.40;;;299.57;;
4202;SDS011;2115;51.038;7.006;2023-09-19T14:32:01;639.50;;;300.10;;
4202;SDS011;2115;51.038;7.006;2023-09-19T14:34:27;611.93;;;264.63;;
4202;SDS011;2115;51.038;7.006;2023-09-19T14:36:53;606.63;;;271.10;;
4202;SDS011;2115;51.038;7.006;2023-09-19T14:39:19;609.37;;;269.83;;
4202;SDS011;2115;51.038;7.006;2023-09-19T14:41:45;596.93;;;249.93;;
4202;SDS011;2115;51.038;7.006;2023-09-19T14:44:10;616.73;;;277.97;;
4202;SDS011;2115;51.038;7.006;2023-09-19T14:46:36;654.17;;;323.43;;
4202;SDS011;2115;51.038;7.006;2023-09-19T14:49:01;609.17;;;260.40;;
4202;SDS011;2115;51.038;7.006;2023-09-19T14:51:29;609.37;;;241.00;;
4202;SDS011;2115;51.038;7.006;2023-09-19T14:53:55;639.83;;;304.63;;
4202;SDS011;2115;51.038;7.006;2023-09-19T14:56:21;604.37;;;254.87;;
4202;SDS011;2115;51.038;7.006;2023-09-19T14:58:48;666.20;;;319.70;;
4202;SDS011;2115;51.038;7.006;2023-09-19T15:01:14;767.00;;;635.77;;
4202;SDS011;2115;51.038;7.006;2023-09-19T15:03:40;768.67;;;650.97;;
4202;SDS011;2115;51.038;7.006;2023-09-19T15:06:07;857.30;;;768.13;;
4202;SDS011;2115;51.038;7.006;2023-09-19T15:08:37;989.83;;;886.77;;
4202;SDS011;2115;51.038;7.006;2023-09-19T15:11:05;980.03;;;878.13;;
4202;SDS011;2115;51.038;7.006;2023-09-19T15:13:32;996.23;;;888.83;;
4202;SDS011;2115;51.038;7.006;2023-09-19T15:15:59;925.17;;;822.70;;
4202;SDS011;2115;51.038;7.006;2023-09-19T15:18:34;868.33;;;713.90;;
4202;SDS011;2115;51.038;7.006;2023-09-19T15:21:03;803.63;;;636.17;;
4202;SDS011;2115;51.038;7.006;2023-09-19T15:23:32;729.90;;;382.17;;
4202;SDS011;2115;51.038;7.006;2023-09-19T15:26:09;691.40;;;317.30;;
4202;SDS011;2115;51.038;7.006;2023-09-19T15:28:36;974.67;;;872.43;;
4202;SDS011;2115;51.038;7.006;2023-09-19T15:31:12;700.10;;;286.40;;
4202;SDS011;2115;51.038;7.006;2023-09-19T15:33:38;683.33;;;286.27;;
4202;SDS011;2115;51.038;7.006;2023-09-19T15:36:04;643.63;;;283.10;;
4202;SDS011;2115;51.038;7.006;2023-09-19T15:41:32;657.60;;;295.53;;
4202;SDS011;2115;51.038;7.006;2023-09-19T15:43:59;659.67;;;274.13;;
4202;SDS011;2115;51.038;7.006;2023-09-19T15:46:26;645.50;;;284.77;;
4202;SDS011;2115;51.038;7.006;2023-09-19T15:48:55;720.90;;;401.17;;
4202;SDS011;2115;51.038;7.006;2023-09-19T15:51:21;704.00;;;318.67;;
4202;SDS011;2115;51.038;7.006;2023-09-19T15:53:47;672.37;;;286.63;;
4202;SDS011;2115;51.038;7.006;2023-09-19T15:56:14;667.90;;;297.47;;
4202;SDS011;2115;51.038;7.006;2023-09-19T15:58:43;863.97;;;679.87;;
4202;SDS011;2115;51.038;7.006;2023-09-19T16:01:09;675.97;;;319.20;;
4202;SDS011;2115;51.038;7.006;2023-09-19T16:03:35;860.03;;;688.43;;
4202;SDS011;2115;51.038;7.006;2023-09-19T16:06:08;740.00;;;336.23;;
4202;SDS011;2115;51.038;7.006;2023-09-19T16:08:34;737.17;;;299.37;;
4202;SDS011;2115;51.038;7.006;2023-09-19T16:11:02;681.47;;;287.27;;
4202;SDS011;2115;51.038;7.006;2023-09-19T16:13:28;787.57;;;565.80;;
4202;SDS011;2115;51.038;7.006;2023-09-19T16:15:53;850.27;;;706.93;;
4202;SDS011;2115;51.038;7.006;2023-09-19T16:18:19;878.63;;;787.00;;
4202;SDS011;2115;51.038;7.006;2023-09-19T16:20:44;912.87;;;818.83;;
4202;SDS011;2115;51.038;7.006;2023-09-19T16:23:10;949.60;;;850.37;;
4202;SDS011;2115;51.038;7.006;2023-09-19T16:25:36;1038.00;;;928.70;;
4202;SDS011;2115;51.038;7.006;2023-09-19T16:28:01;933.93;;;834.47;;
4202;SDS011;2115;51.038;7.006;2023-09-19T16:30:27;903.90;;;801.83;;
4202;SDS011;2115;51.038;7.006;2023-09-19T16:32:53;861.77;;;731.50;;
4202;SDS011;2115;51.038;7.006;2023-09-19T16:35:19;882.47;;;772.83;;
4202;SDS011;2115;51.038;7.006;2023-09-19T16:37:44;913.73;;;811.00;;
4202;SDS011;2115;51.038;7.006;2023-09-19T16:40:10;769.93;;;452.13;;
4202;SDS011;2115;51.038;7.006;2023-09-19T16:42:37;834.90;;;651.60;;
4202;SDS011;2115;51.038;7.006;2023-09-19T16:45:03;798.23;;;505.43;;
4202;SDS011;2115;51.038;7.006;2023-09-19T16:47:30;650.33;;;301.03;;
4202;SDS011;2115;51.038;7.006;2023-09-19T16:49:55;822.37;;;714.70;;
4202;SDS011;2115;51.038;7.006;2023-09-19T16:52:20;851.03;;;761.00;;
4202;SDS011;2115;51.038;7.006;2023-09-19T16:54:46;870.03;;;777.17;;
4202;SDS011;2115;51.038;7.006;2023-09-19T16:57:11;934.93;;;834.97;;
4202;SDS011;2115;51.038;7.006;2023-09-19T16:59:36;971.63;;;869.57;;
4202;SDS011;2115;51.038;7.006;2023-09-19T17:02:02;822.17;;;719.43;;
4202;SDS011;2115;51.038;7.006;2023-09-19T17:04:28;902.63;;;807.77;;
4202;SDS011;2115;51.038;7.006;2023-09-19T17:06:56;809.93;;;718.10;;
4202;SDS011;2115;51.038;7.006;2023-09-19T17:09:22;904.33;;;808.43;;
4202;SDS011;2115;51.038;7.006;2023-09-19T17:11:47;979.93;;;873.40;;
4202;SDS011;2115;51.038;7.006;2023-09-19T17:14:13;916.87;;;817.47;;
4202;SDS011;2115;51.038;7.006;2023-09-19T17:16:38;856.67;;;755.53;;
4202;SDS011;2115;51.038;7.006;2023-09-19T17:19:04;836.17;;;649.03;;
4202;SDS011;2115;51.038;7.006;2023-09-19T17:21:29;841.17;;;704.10;;
4202;SDS011;2115;51.038;7.006;2023-09-19T17:23:55;952.57;;;848.77;;
4202;SDS011;2115;51.038;7.006;2023-09-19T17:26:23;902.23;;;804.70;;
4202;SDS011;2115;51.038;7.006;2023-09-19T17:28:50;828.10;;;684.30;;
4202;SDS011;2115;51.038;7.006;2023-09-19T17:31:17;852.97;;;746.17;;
4202;SDS011;2115;51.038;7.006;2023-09-19T17:33:44;989.37;;;884.70;;
4202;SDS011;2115;51.038;7.006;2023-09-19T17:36:11;903.40;;;796.57;;
4202;SDS011;2115;51.038;7.006;2023-09-19T17:38:42;895.33;;;769.53;;
4202;SDS011;2115;51.038;7.006;2023-09-19T17:41:08;866.40;;;689.40;;
4202;SDS011;2115;51.038;7.006;2023-09-19T17:43:34;794.93;;;581.40;;
4202;SDS011;2115;51.038;7.006;2023-09-19T17:46:09;895.03;;;799.73;;
4202;SDS011;2115;51.038;7.006;2023-09-19T17:48:39;838.50;;;745.87;;
4202;SDS011;2115;51.038;7.006;2023-09-19T17:51:07;955.07;;;850.47;;
4202;SDS011;2115;51.038;7.006;2023-09-19T17:53:34;832.07;;;637.27;;
4202;SDS011;2115;51.038;7.006;2023-09-19T17:56:01;934.73;;;833.23;;
4202;SDS011;2115;51.038;7.006;2023-09-19T17:58:28;878.93;;;764.87;;
4202;SDS011;2115;51.038;7.006;2023-09-19T18:00:55;905.37;;;781.30;;
4202;SDS011;2115;51.038;7.006;2023-09-19T18:03:22;814.27;;;698.17;;
4202;SDS011;2115;51.038;7.006;2023-09-19T18:05:50;721.23;;;370.43;;
4202;SDS011;2115;51.038;7.006;2023-09-19T18:08:17;800.30;;;712.30;;
4202;SDS011;2115;51.038;7.006;2023-09-19T18:10:45;886.50;;;791.60;;
4202;SDS011;2115;51.038;7.006;2023-09-19T18:13:11;908.03;;;808.53;;
4202;SDS011;2115;51.038;7.006;2023-09-19T18:15:37;897.03;;;773.13;;
4202;SDS011;2115;51.038;7.006;2023-09-19T18:18:06;904.87;;;781.90;;
4202;SDS011;2115;51.038;7.006;2023-09-19T18:20:35;823.70;;;657.60;;
4202;SDS011;2115;51.038;7.006;2023-09-19T18:23:03;908.47;;;809.63;;
4202;SDS011;2115;51.038;7.006;2023-09-19T18:25:28;955.33;;;851.23;;
4202;SDS011;2115;51.038;7.006;2023-09-19T18:27:55;872.63;;;700.93;;
4202;SDS011;2115;51.038;7.006;2023-09-19T18:30:20;886.73;;;782.97;;
4202;SDS011;2115;51.038;7.006;2023-09-19T18:32:46;948.73;;;844.93;;
4202;SDS011;2115;51.038;7.006;2023-09-19T18:35:12;805.50;;;614.53;;
4202;SDS011;2115;51.038;7.006;2023-09-19T18:37:40;938.57;;;834.43;;
4202;SDS011;2115;51.038;7.006;2023-09-19T18:40:07;892.07;;;783.93;;
4202;SDS011;2115;51.038;7.006;2023-09-19T18:42:36;913.90;;;815.73;;
4202;SDS011;2115;51.038;7.006;2023-09-19T18:45:01;835.30;;;644.57;;
4202;SDS011;2115;51.038;7.006;2023-09-19T18:47:28;839.87;;;747.77;;
4202;SDS011;2115;51.038;7.006;2023-09-19T18:49:54;897.67;;;799.43;;
4202;SDS011;2115;51.038;7.006;2023-09-19T18:52:21;903.83;;;808.23;;
4202;SDS011;2115;51.038;7.006;2023-09-19T18:54:48;925.27;;;824.17;;
4202;SDS011;2115;51.038;7.006;2023-09-19T18:57:14;810.00;;;668.23;;
4202;SDS011;2115;51.038;7.006;2023-09-19T18:59:40;766.90;;;568.63;;
4202;SDS011;2115;51.038;7.006;2023-09-19T19:02:05;754.37;;;557.57;;
4202;SDS011;2115;51.038;7.006;2023-09-19T19:04:31;756.20;;;522.57;;
4202;SDS011;2115;51.038;7.006;2023-09-19T19:06:56;745.10;;;537.20;;
4202;SDS011;2115;51.038;7.006;2023-09-19T19:09:22;754.17;;;567.97;;
4202;SDS011;2115;51.038;7.006;2023-09-19T19:11:48;757.97;;;568.30;;
4202;SDS011;2115;51.038;7.006;2023-09-19T19:14:14;762.70;;;576.50;;
4202;SDS011;2115;51.038;7.006;2023-09-19T19:16:39;754.60;;;560.47;;
4202;SDS011;2115;51.038;7.006;2023-09-19T19:19:07;760.63;;;600.70;;
4202;SDS011;2115;51.038;7.006;2023-09-19T19:21:36;769.90;;;622.33;;
4202;SDS011;2115;51.038;7.006;2023-09-19T19:24:02;795.67;;;685.13;;
4202;SDS011;2115;51.038;7.006;2023-09-19T19:26:29;855.00;;;760.90;;
4202;SDS011;2115;51.038;7.006;2023-09-19T19:28:55;877.93;;;782.70;;
4202;SDS011;2115;51.038;7.006;2023-09-19T19:31:21;910.27;;;811.87;;
4202;SDS011;2115;51.038;7.006;2023-09-19T19:33:47;870.97;;;776.73;;
4202;SDS011;2115;51.038;7.006;2023-09-19T19:36:12;804.57;;;707.17;;
4202;SDS011;2115;51.038;7.006;2023-09-19T19:38:40;857.83;;;764.83;;
4202;SDS011;2115;51.038;7.006;2023-09-19T19:41:05;885.43;;;790.90;;
4202;SDS011;2115;51.038;7.006;2023-09-19T19:43:32;813.93;;;707.83;;
4202;SDS011;2115;51.038;7.006;2023-09-19T19:45:58;932.13;;;832.53;;
4202;SDS011;2115;51.038;7.006;2023-09-19T19:48:24;885.77;;;789.63;;
4202;SDS011;2115;51.038;7.006;2023-09-19T19:50:50;784.20;;;663.53;;
4202;SDS011;2115;51.038;7.006;2023-09-19T19:53:15;847.10;;;749.07;;
4202;SDS011;2115;51.038;7.006;2023-09-19T19:55:42;813.87;;;723.80;;
4202;SDS011;2115;51.038;7.006;2023-09-19T19:58:08;822.67;;;710.80;;
4202;SDS011;2115;51.038;7.006;2023-09-19T20:00:33;876.97;;;781.47;;
4202;SDS011;2115;51.038;7.006;2023-09-19T20:03:00;808.90;;;718.57;;
4202;SDS011;2115;51.038;7.006;2023-09-19T20:05:25;776.20;;;637.53;;
4202;SDS011;2115;51.038;7.006;2023-09-19T20:07:51;775.30;;;642.43;;
4202;SDS011;2115;51.038;7.006;2023-09-19T20:10:17;802.73;;;691.30;;
4202;SDS011;2115;51.038;7.006;2023-09-19T20:12:44;796.83;;;631.37;;
4202;SDS011;2115;51.038;7.006;2023-09-19T20:15:11;949.93;;;847.13;;
4202;SDS011;2115;51.038;7.006;2023-09-19T20:17:37;986.67;;;880.37;;
4202;SDS011;2115;51.038;7.006;2023-09-19T20:20:06;844.27;;;723.30;;
4202;SDS011;2115;51.038;7.006;2023-09-19T20:22:44;913.73;;;814.97;;
4202;SDS011;2115;51.038;7.006;2023-09-19T20:25:10;731.33;;;409.47;;
4202;SDS011;2115;51.038;7.006;2023-09-19T20:27:40;871.37;;;777.80;;
4202;SDS011;2115;51.038;7.006;2023-09-19T20:30:06;955.87;;;852.37;;
4202;SDS011;2115;51.038;7.006;2023-09-19T20:32:33;904.77;;;774.97;;
4202;SDS011;2115;51.038;7.006;2023-09-19T20:35:00;846.60;;;640.67;;
4202;SDS011;2115;51.038;7.006;2023-09-19T20:37:27;634.73;;;249.17;;
4202;SDS011;2115;51.038;7.006;2023-09-19T20:39:53;776.43;;;650.00;;
4202;SDS011;2115;51.038;7.006;2023-09-19T20:42:19;893.03;;;747.60;;
4202;SDS011;2115;51.038;7.006;2023-09-19T20:44:46;802.83;;;636.47;;
4202;SDS011;2115;51.038;7.006;2023-09-19T20:47:12;924.30;;;822.10;;
4202;SDS011;2115;51.038;7.006;2023-09-19T20:49:37;846.83;;;682.17;;
4202;SDS011;2115;51.038;7.006;2023-09-19T20:52:03;846.43;;;683.57;;
4202;SDS011;2115;51.038;7.006;2023-09-19T20:54:29;820.93;;;657.03;;
4202;SDS011;2115;51.038;7.006;2023-09-19T20:56:56;837.67;;;707.47;;
4202;SDS011;2115;51.038;7.006;2023-09-19T20:59:23;845.57;;;663.30;;
4202;SDS011;2115;51.038;7.006;2023-09-19T21:01:51;745.07;;;504.67;;
4202;SDS011;2115;51.038;7.006;2023-09-19T21:04:16;749.97;;;515.63;;
4202;SDS011;2115;51.038;7.006;2023-09-19T21:06:42;744.80;;;524.90;;
4202;SDS011;2115;51.038;7.006;2023-09-19T21:09:07;739.47;;;499.83;;
4202;SDS011;2115;51.038;7.006;2023-09-19T21:11:33;739.60;;;509.90;;
4202;SDS011;2115;51.038;7.006;2023-09-19T21:13:58;745.63;;;520.07;;
4202;SDS011;2115;51.038;7.006;2023-09-19T21:16:23;741.53;;;510.17;;
4202;SDS011;2115;51.038;7.006;2023-09-19T21:18:49;740.80;;;507.63;;
4202;SDS011;2115;51.038;7.006;2023-09-19T21:21:14;740.93;;;497.40;;
4202;SDS011;2115;51.038;7.006;2023-09-19T21:23:40;742.27;;;515.47;;
4202;SDS011;2115;51.038;7.006;2023-09-19T21:26:07;742.57;;;506.50;;
4202;SDS011;2115;51.038;7.006;2023-09-19T21:28:35;752.43;;;511.10;;
4202;SDS011;2115;51.038;7.006;2023-09-19T21:33:33;735.87;;;507.57;;
4202;SDS011;2115;51.038;7.006;2023-09-19T21:36:04;744.37;;;529.87;;
4202;SDS011;2115;51.038;7.006;2023-09-19T21:38:34;739.47;;;529.50;;
4202;SDS011;2115;51.038;7.006;2023-09-19T21:41:10;733.53;;;487.97;;
4202;SDS011;2115;51.038;7.006;2023-09-19T21:43:37;746.77;;;510.30;;
4202;SDS011;2115;51.038;7.006;2023-09-19T21:46:03;728.80;;;475.77;;
4202;SDS011;2115;51.038;7.006;2023-09-19T21:48:29;739.50;;;491.27;;
4202;SDS011;2115;51.038;7.006;2023-09-19T21:50:54;735.70;;;499.50;;
4202;SDS011;2115;51.038;7.006;2023-09-19T21:53:20;736.20;;;495.70;;
4202;SDS011;2115;51.038;7.006;2023-09-19T21:55:46;746.23;;;505.20;;
4202;SDS011;2115;51.038;7.006;2023-09-19T21:58:12;745.23;;;481.03;;
4202;SDS011;2115;51.038;7.006;2023-09-19T22:00:37;744.97;;;478.83;;
4202;SDS011;2115;51.038;7.006;2023-09-19T22:03:04;724.57;;;462.87;;
4202;SDS011;2115;51.038;7.006;2023-09-19T22:05:34;734.73;;;487.10;;
4202;SDS011;2115;51.038;7.006;2023-09-19T22:08:02;736.97;;;477.13;;
4202;SDS011;2115;51.038;7.006;2023-09-19T22:10:30;742.53;;;527.00;;
4202;SDS011;2115;51.038;7.006;2023-09-19T22:12:56;729.83;;;493.57;;
4202;SDS011;2115;51.038;7.006;2023-09-19T22:15:24;736.40;;;494.00;;
4202;SDS011;2115;51.038;7.006;2023-09-19T22:17:51;732.97;;;486.27;;
4202;SDS011;2115;51.038;7.006;2023-09-19T22:20:16;741.27;;;489.97;;
4202;SDS011;2115;51.038;7.006;2023-09-19T22:22:53;744.33;;;505.83;;
4202;SDS011;2115;51.038;7.006;2023-09-19T22:25:22;725.03;;;477.47;;
4202;SDS011;2115;51.038;7.006;2023-09-19T22:27:50;745.33;;;526.50;;
4202;SDS011;2115;51.038;7.006;2023-09-19T22:30:16;736.37;;;509.03;;
4202;SDS011;2115;51.038;7.006;2023-09-19T22:32:44;729.93;;;488.60;;
4202;SDS011;2115;51.038;7.006;2023-09-19T22:35:10;731.27;;;477.13;;
4202;SDS011;2115;51.038;7.006;2023-09-19T22:37:35;744.60;;;503.33;;
4202;SDS011;2115;51.038;7.006;2023-09-19T22:40:02;747.63;;;536.00;;
4202;SDS011;2115;51.038;7.006;2023-09-19T22:42:48;741.00;;;525.63;;
4202;SDS011;2115;51.038;7.006;2023-09-19T22:45:14;738.67;;;500.17;;
4202;SDS011;2115;51.038;7.006;2023-09-19T22:47:39;757.73;;;585.63;;
4202;SDS011;2115;51.038;7.006;2023-09-19T22:50:05;741.67;;;539.30;;
4202;SDS011;2115;51.038;7.006;2023-09-19T22:52:32;733.77;;;455.60;;
4202;SDS011;2115;51.038;7.006;2023-09-19T22:55:01;735.63;;;467.63;;
4202;SDS011;2115;51.038;7.006;2023-09-19T22:57:33;734.93;;;472.67;;
4202;SDS011;2115;51.038;7.006;2023-09-19T23:00:01;726.23;;;460.17;;
4202;SDS011;2115;51.038;7.006;2023-09-19T23:02:27;723.43;;;447.50;;
4202;SDS011;2115;51.038;7.006;2023-09-19T23:04:54;732.57;;;483.97;;
4202;SDS011;2115;51.038;7.006;2023-09-19T23:07:25;726.97;;;486.30;;
4202;SDS011;2115;51.038;7.006;2023-09-19T23:09:51;751.47;;;518.40;;
4202;SDS011;2115;51.038;7.006;2023-09-19T23:12:18;737.53;;;496.47;;
4202;SDS011;2115;51.038;7.006;2023-09-19T23:14:46;729.50;;;477.17;;
4202;SDS011;2115;51.038;7.006;2023-09-19T23:17:11;770.33;;;578.37;;
4202;SDS011;2115;51.038;7.006;2023-09-19T23:19:38;735.27;;;494.43;;
4202;SDS011;2115;51.038;7.006;2023-09-19T23:22:05;771.07;;;602.97;;
4202;SDS011;2115;51.038;7.006;2023-09-19T23:24:39;745.50;;;536.07;;
4202;SDS011;2115;51.038;7.006;2023-09-19T23:27:06;743.23;;;538.00;;
4202;SDS011;2115;51.038;7.006;2023-09-19T23:29:32;804.50;;;685.97;;
4202;SDS011;2115;51.038;7.006;2023-09-19T23:31:59;822.13;;;715.73;;
4202;SDS011;2115;51.038;7.006;2023-09-19T23:34:25;831.43;;;728.27;;
4202;SDS011;2115;51.038;7.006;2023-09-19T23:36:52;843.90;;;746.93;;
4202;SDS011;2115;51.038;7.006;2023-09-19T23:39:21;881.70;;;783.73;;
4202;SDS011;2115;51.038;7.006;2023-09-19T23:41:47;913.43;;;808.67;;
4202;SDS011;2115;51.038;7.006;2023-09-19T23:44:12;927.07;;;815.40;;
4202;SDS011;2115;51.038;7.006;2023-09-19T23:46:38;921.63;;;813.90;;
4202;SDS011;2115;51.038;7.006;2023-09-19T23:49:06;961.17;;;856.77;;
4202;SDS011;2115;51.038;7.006;2023-09-19T23:51:35;931.83;;;828.27;;
4202;SDS011;2115;51.038;7.006;2023-09-19T23:54:05;900.77;;;793.07;;
4202;SDS011;2115;51.038;7.006;2023-09-19T23:56:39;927.30;;;823.60;;
4202;SDS011;2115;51.038;7.006;2023-09-19T23:59:10;744.60;;;521.67;;
